Terminal Aerodrome Forecast
Issued by NWS Cleveland, OH

Home | Current Version | Previous Version | Graphics & Text | Print | Product List | Glossary On
Versions: 1 2 3 4 5 6 7 8 9 10 11 12 13 14 15 16 17 18 19 20 21 22 23 24 25 26 27 28 29
000
FTUS41 KCLE 141400 AAA
TAFCLE
TAF AMD
KCLE 141454Z 1415/1518 22004KT P6SM SCT050
     FM141800 30005KT P6SM BKN050
     FM150200 19005KT P6SM FEW040 SCT250
     FM151500 22010KT P6SM SCT040 OVC120=

USA.gov is the U.S. government's official web portal to all federal, state and local government web resources and services.